createdAt,value
2022-12-16T00:00:22.758Z,-1.60
2022-12-16T00:02:51.603Z,-1.50
2022-12-16T00:05:22.745Z,-1.50
2022-12-16T00:07:50.673Z,-1.50
2022-12-16T00:10:18.612Z,-1.50
2022-12-16T00:12:46.566Z,-1.50
2022-12-16T00:15:14.431Z,-1.50
2022-12-16T00:17:42.317Z,-1.50
2022-12-16T00:20:11.071Z,-1.50
2022-12-16T00:22:39.028Z,-1.50
2022-12-16T00:25:07.233Z,-1.50
2022-12-16T00:27:35.872Z,-1.50
2022-12-16T00:30:04.159Z,-1.50
2022-12-16T00:32:32.086Z,-1.50
2022-12-16T00:35:00.098Z,-1.40
2022-12-16T00:37:29.325Z,-1.50
2022-12-16T00:39:57.203Z,-1.40
2022-12-16T00:42:25.098Z,-1.40
2022-12-16T00:44:52.964Z,-1.40
2022-12-16T00:47:22.712Z,-1.40
2022-12-16T00:49:50.554Z,-1.40
2022-12-16T00:52:18.437Z,-1.40
2022-12-16T00:54:46.391Z,-1.40
2022-12-16T00:57:14.768Z,-1.40
2022-12-16T00:59:42.820Z,-1.40
2022-12-16T01:02:12.100Z,-1.30
2022-12-16T01:04:40.132Z,-1.40
2022-12-16T01:07:08.145Z,-1.40
2022-12-16T01:09:36.997Z,-1.40
2022-12-16T01:12:05.236Z,-1.40
2022-12-16T01:14:33.446Z,-1.40
2022-12-16T01:17:02.553Z,-1.50
2022-12-16T01:19:30.433Z,-1.50
2022-12-16T01:21:58.295Z,-1.50
2022-12-16T01:24:26.245Z,-1.60
2022-12-16T01:26:54.317Z,-1.60
2022-12-16T01:29:22.274Z,-1.70
2022-12-16T01:31:50.286Z,-1.70
2022-12-16T01:34:18.505Z,-1.70
2022-12-16T01:36:48.815Z,-1.70
2022-12-16T01:39:16.789Z,-1.70
2022-12-16T01:41:46.458Z,-1.70
2022-12-16T01:44:35.457Z,-1.70
2022-12-16T01:47:06.355Z,-1.60
2022-12-16T01:49:44.539Z,-1.70
2022-12-16T01:52:26.427Z,-1.60
2022-12-16T01:55:19.558Z,-1.60
2022-12-16T01:57:55.406Z,-1.60
2022-12-16T02:00:23.715Z,-1.60
2022-12-16T02:02:54.349Z,-1.60
2022-12-16T02:05:24.468Z,-1.60
2022-12-16T02:08:17.940Z,-1.60
2022-12-16T02:10:46.004Z,-1.60
2022-12-16T02:13:22.696Z,-1.60
2022-12-16T02:16:10.766Z,-1.60
2022-12-16T02:18:56.835Z,-1.70
2022-12-16T02:21:53.737Z,-1.70
2022-12-16T02:24:51.134Z,-1.70
2022-12-16T02:28:02.021Z,-1.70
2022-12-16T02:30:47.218Z,-1.70
2022-12-16T02:33:49.700Z,-1.70
2022-12-16T02:36:33.416Z,-1.70
2022-12-16T02:39:13.699Z,-1.70
2022-12-16T02:41:56.805Z,-1.80
2022-12-16T02:44:35.802Z,-1.80
2022-12-16T02:47:03.946Z,-1.80
2022-12-16T02:49:31.742Z,-1.80
2022-12-16T02:52:01.845Z,-1.80
2022-12-16T02:54:30.588Z,-1.80
2022-12-16T02:57:23.689Z,-1.80
2022-12-16T03:00:09.953Z,-1.70
2022-12-16T03:03:03.500Z,-1.80
2022-12-16T03:05:46.763Z,-1.80
2022-12-16T03:08:19.668Z,-1.80
2022-12-16T03:10:53.878Z,-1.80
2022-12-16T03:13:24.537Z,-1.80
2022-12-16T03:15:55.278Z,-1.80
2022-12-16T03:18:24.305Z,-1.70
2022-12-16T03:21:06.384Z,-1.70
2022-12-16T03:23:45.424Z,-1.70
2022-12-16T03:26:28.362Z,-1.70
2022-12-16T03:29:16.898Z,-1.70
2022-12-16T03:31:50.774Z,-1.70
2022-12-16T03:34:39.118Z,-1.70
2022-12-16T03:37:09.962Z,-1.70
2022-12-16T03:39:45.297Z,-1.70
2022-12-16T03:42:16.034Z,-1.70
2022-12-16T03:44:47.798Z,-1.70
2022-12-16T03:47:19.962Z,-1.70
2022-12-16T03:49:51.518Z,-1.70
2022-12-16T03:52:19.537Z,-1.70
2022-12-16T03:54:47.665Z,-1.70
2022-12-16T03:57:15.946Z,-1.70
2022-12-16T03:59:44.490Z,-1.70
2022-12-16T04:02:12.544Z,-1.70
2022-12-16T04:04:40.561Z,-1.70
2022-12-16T04:07:25.457Z,-1.70
2022-12-16T04:09:57.739Z,-1.70
2022-12-16T04:12:44.462Z,-1.70
2022-12-16T04:15:39.432Z,-1.70
2022-12-16T04:18:36.057Z,-1.80
2022-12-16T04:21:27.406Z,-1.80
2022-12-16T04:24:16.504Z,-1.80
2022-12-16T04:27:03.063Z,-1.80
2022-12-16T04:29:33.669Z,-1.80
2022-12-16T04:32:02.449Z,-1.80
2022-12-16T04:34:30.763Z,-1.80
2022-12-16T04:37:22.748Z,-1.80
2022-12-16T04:40:09.148Z,-1.90
2022-12-16T04:42:55.768Z,-1.90
2022-12-16T04:45:42.350Z,-1.90
2022-12-16T04:48:28.877Z,-1.90
2022-12-16T04:51:15.283Z,-1.80
2022-12-16T04:54:01.645Z,-1.80
2022-12-16T04:56:51.085Z,-1.80
2022-12-16T04:59:37.538Z,-1.90
2022-12-16T05:02:23.965Z,-1.90
2022-12-16T05:05:10.550Z,-1.90
2022-12-16T05:07:56.934Z,-1.90
2022-12-16T05:10:43.379Z,-1.80
2022-12-16T05:13:29.846Z,-1.80
2022-12-16T05:16:16.996Z,-1.80
2022-12-16T05:19:03.940Z,-1.80
2022-12-16T05:21:54.953Z,-1.80
2022-12-16T05:24:41.704Z,-1.80
2022-12-16T05:27:30.059Z,-1.80
2022-12-16T05:30:16.391Z,-1.80
2022-12-16T05:33:03.360Z,-1.80
2022-12-16T05:35:50.100Z,-1.80
2022-12-16T05:38:36.787Z,-1.80
2022-12-16T05:41:23.161Z,-1.80
2022-12-16T05:44:09.860Z,-1.80
2022-12-16T05:46:56.323Z,-1.90
2022-12-16T05:49:43.550Z,-1.90
2022-12-16T05:52:30.261Z,-1.90
2022-12-16T05:55:16.666Z,-1.80
2022-12-16T05:58:03.190Z,-1.80
2022-12-16T06:00:50.279Z,-1.90
2022-12-16T06:03:37.263Z,-1.90
2022-12-16T06:06:26.917Z,-1.80
2022-12-16T06:09:13.448Z,-1.80
2022-12-16T06:12:00.357Z,-1.90
2022-12-16T06:14:46.797Z,-1.90
2022-12-16T06:17:33.284Z,-1.80
2022-12-16T06:20:19.752Z,-1.80
2022-12-16T06:23:13.404Z,-1.80
2022-12-16T06:26:00.414Z,-1.80
2022-12-16T06:28:48.124Z,-1.80
2022-12-16T06:31:34.573Z,-1.70
2022-12-16T06:34:22.367Z,-1.70
2022-12-16T06:37:09.065Z,-1.70
2022-12-16T06:39:55.855Z,-1.70
2022-12-16T06:42:42.762Z,-1.70
2022-12-16T06:45:34.523Z,-1.70
2022-12-16T06:48:21.314Z,-1.70
2022-12-16T06:51:07.784Z,-1.70
2022-12-16T06:53:54.206Z,-1.70
2022-12-16T06:56:40.554Z,-1.70
2022-12-16T06:59:26.881Z,-1.60
2022-12-16T07:02:13.357Z,-1.70
2022-12-16T07:04:59.767Z,-1.60
2022-12-16T07:07:46.276Z,-1.60
2022-12-16T07:10:32.706Z,-1.60
2022-12-16T07:13:22.671Z,-1.60
2022-12-16T07:16:13.794Z,-1.60
2022-12-16T07:19:00.290Z,-1.60
2022-12-16T07:21:47.003Z,-1.60
2022-12-16T07:24:33.308Z,-1.50
2022-12-16T07:27:19.674Z,-1.50
2022-12-16T07:30:06.167Z,-1.50
2022-12-16T07:32:52.859Z,-1.50
2022-12-16T07:35:39.267Z,-1.50
2022-12-16T07:38:25.717Z,-1.50
2022-12-16T07:41:12.146Z,-1.50
2022-12-16T07:43:58.466Z,-1.50
2022-12-16T07:46:44.877Z,-1.50
2022-12-16T07:49:31.313Z,-1.50
2022-12-16T07:52:17.955Z,-1.50
2022-12-16T07:55:04.474Z,-1.40
2022-12-16T07:58:10.591Z,-1.50
2022-12-16T08:00:57.346Z,-1.40
2022-12-16T08:03:44.094Z,-1.40
2022-12-16T08:06:30.809Z,-1.40
2022-12-16T08:09:17.397Z,-1.40
2022-12-16T08:12:04.461Z,-1.40
2022-12-16T08:14:50.748Z,-1.40
2022-12-16T08:17:39.297Z,-1.40
2022-12-16T08:20:30.678Z,-1.40
2022-12-16T08:23:17.304Z,-1.40
2022-12-16T08:26:03.682Z,-1.40
2022-12-16T08:28:53.620Z,-1.40
2022-12-16T08:31:39.997Z,-1.40
2022-12-16T08:34:26.624Z,-1.30
2022-12-16T08:37:14.154Z,-1.30
2022-12-16T08:43:12.777Z,-1.30
2022-12-16T08:46:00.408Z,-1.20
2022-12-16T08:48:47.386Z,-1.20
2022-12-16T08:51:33.929Z,-1.20
2022-12-16T08:54:20.655Z,-1.10
2022-12-16T08:57:07.037Z,-1.10
2022-12-16T08:59:53.503Z,-1.20
2022-12-16T09:02:40.341Z,-1.10
2022-12-16T09:05:27.376Z,-1.10
2022-12-16T09:08:20.045Z,-1.10
2022-12-16T09:11:06.650Z,-1.00
2022-12-16T09:13:53.103Z,-1.00
2022-12-16T09:16:39.669Z,-0.90
2022-12-16T09:19:26.267Z,-0.90
2022-12-16T09:22:12.476Z,-1.00
2022-12-16T09:24:59.582Z,-0.90
2022-12-16T09:27:45.959Z,-0.90
2022-12-16T09:30:32.879Z,-0.90
2022-12-16T09:33:24.190Z,-0.80
2022-12-16T09:36:10.655Z,-0.70
2022-12-16T09:38:57.105Z,-0.60
2022-12-16T09:41:46.609Z,-0.60
2022-12-16T09:44:45.221Z,-0.40
2022-12-16T09:47:43.135Z,-0.30
2022-12-16T09:50:43.933Z,-0.30
2022-12-16T09:53:34.336Z,-0.10
2022-12-16T09:56:24.970Z,-0.10
2022-12-16T09:59:18.002Z,-0.10
2022-12-16T10:02:04.899Z,0.00
2022-12-16T10:04:52.360Z,0.10
2022-12-16T10:07:41.168Z,0.10
2022-12-16T10:10:56.949Z,0.10
2022-12-16T10:14:08.477Z,0.10
2022-12-16T10:17:04.170Z,0.10
2022-12-16T10:20:38.132Z,0.00
2022-12-16T10:23:41.916Z,0.00
2022-12-16T10:26:40.410Z,-0.10
2022-12-16T10:29:38.214Z,-0.10
2022-12-16T10:32:47.024Z,-0.20
2022-12-16T10:35:59.980Z,-0.30
2022-12-16T10:39:17.754Z,-0.30
2022-12-16T10:42:09.892Z,-0.30
2022-12-16T10:45:17.525Z,-0.10
2022-12-16T10:48:07.125Z,-0.10
2022-12-16T10:50:53.856Z,-0.20
2022-12-16T10:53:46.613Z,-0.10
2022-12-16T10:57:07.232Z,-0.20
2022-12-16T10:59:56.621Z,-0.20
2022-12-16T11:02:48.784Z,-0.20
2022-12-16T11:05:54.943Z,-0.20
2022-12-16T11:08:47.586Z,-0.20
2022-12-16T11:11:52.779Z,-0.20
2022-12-16T11:15:05.944Z,-0.20
2022-12-16T11:17:57.366Z,-0.20
2022-12-16T11:20:45.925Z,-0.30
2022-12-16T11:23:42.971Z,-0.30
2022-12-16T11:26:46.991Z,-0.40
2022-12-16T11:29:36.317Z,-0.30
2022-12-16T11:32:41.225Z,-0.20
2022-12-16T11:35:36.742Z,-0.30
2022-12-16T11:38:25.559Z,-0.30
2022-12-16T11:41:13.220Z,-0.40
2022-12-16T11:44:01.930Z,-0.40
2022-12-16T11:46:51.414Z,-0.40
2022-12-16T11:49:47.642Z,-0.30
2022-12-16T11:52:38.506Z,-0.30
2022-12-16T11:56:06.587Z,-0.40
2022-12-16T11:59:14.525Z,-0.40
2022-12-16T12:02:16.999Z,-0.50
2022-12-16T12:05:03.972Z,-0.50
2022-12-16T12:08:16.918Z,-0.50
2022-12-16T12:11:29.508Z,-0.50
2022-12-16T12:14:26.217Z,-0.50
2022-12-16T12:17:39.017Z,-0.50
2022-12-16T12:20:53.811Z,-0.50
2022-12-16T12:24:12.788Z,-0.50
2022-12-16T12:27:09.526Z,-0.50
2022-12-16T12:30:16.701Z,-0.60
2022-12-16T12:33:24.995Z,-0.60
2022-12-16T12:36:36.377Z,-0.70
2022-12-16T12:39:33.805Z,-0.70
2022-12-16T12:42:44.305Z,-0.80
2022-12-16T12:45:57.911Z,-0.80
2022-12-16T12:48:53.020Z,-0.80
2022-12-16T12:51:57.140Z,-0.90
2022-12-16T12:55:04.772Z,-0.80
2022-12-16T12:57:54.260Z,-0.80
2022-12-16T13:00:45.989Z,-0.90
2022-12-16T13:03:54.203Z,-0.80
2022-12-16T13:06:43.033Z,-0.80
2022-12-16T13:09:46.456Z,-0.80
2022-12-16T13:12:35.998Z,-0.80
2022-12-16T13:15:47.450Z,-0.70
2022-12-16T13:18:48.316Z,-0.70
2022-12-16T13:21:58.190Z,-0.70
2022-12-16T13:24:56.441Z,-0.60
2022-12-16T13:27:50.680Z,-0.70
2022-12-16T13:30:39.911Z,-0.70
2022-12-16T13:33:46.789Z,-0.70
2022-12-16T13:36:35.943Z,-0.70
2022-12-16T13:39:47.343Z,-0.80
2022-12-16T13:42:52.427Z,-0.70
2022-12-16T13:45:50.476Z,-0.70
2022-12-16T13:49:06.450Z,-0.70
2022-12-16T13:52:02.271Z,-0.70
2022-12-16T13:54:52.693Z,-0.80
2022-12-16T13:57:43.045Z,-0.80
2022-12-16T14:00:48.437Z,-0.80
2022-12-16T14:03:59.240Z,-0.80
2022-12-16T14:06:47.805Z,-0.80
2022-12-16T14:09:59.316Z,-0.80
2022-12-16T14:13:05.181Z,-0.80
2022-12-16T14:16:12.928Z,-0.80
2022-12-16T14:19:11.487Z,-0.90
2022-12-16T14:22:08.665Z,-0.90
2022-12-16T14:25:07.230Z,-1.00
2022-12-16T14:27:55.304Z,-1.00
2022-12-16T14:30:47.999Z,-1.00
2022-12-16T14:33:45.787Z,-1.10
2022-12-16T14:36:48.650Z,-1.10
2022-12-16T14:39:47.489Z,-1.10
2022-12-16T14:42:44.198Z,-1.00
2022-12-16T14:45:41.423Z,-1.00
2022-12-16T14:48:54.576Z,-1.00
2022-12-16T14:51:43.601Z,-1.00
2022-12-16T14:54:43.811Z,-1.00
2022-12-16T14:57:35.024Z,-1.00
2022-12-16T15:00:30.665Z,-1.00
2022-12-16T15:03:29.512Z,-1.00
2022-12-16T15:06:17.332Z,-1.00
2022-12-16T15:09:17.568Z,-1.00
2022-12-16T15:12:04.724Z,-1.10
2022-12-16T15:14:58.916Z,-1.00
2022-12-16T15:17:50.220Z,-1.00
2022-12-16T15:20:45.338Z,-1.00
2022-12-16T15:23:38.941Z,-1.00
2022-12-16T15:26:26.887Z,-1.00
2022-12-16T15:29:13.210Z,-1.10
2022-12-16T15:32:03.766Z,-1.10
2022-12-16T15:35:08.522Z,-1.20
2022-12-16T15:38:04.549Z,-1.20
2022-12-16T15:40:55.313Z,-1.30
2022-12-16T15:43:54.824Z,-1.30
2022-12-16T15:46:49.509Z,-1.30
2022-12-16T15:50:03.604Z,-1.20
2022-12-16T15:53:00.936Z,-1.20
2022-12-16T15:56:04.500Z,-1.20
2022-12-16T15:58:54.676Z,-1.20
2022-12-16T16:01:47.428Z,-1.30
2022-12-16T16:04:44.568Z,-1.30
2022-12-16T16:07:39.896Z,-1.30
2022-12-16T16:10:42.495Z,-1.30
2022-12-16T16:13:30.277Z,-1.30
2022-12-16T16:16:31.013Z,-1.30
2022-12-16T16:19:17.865Z,-1.30
2022-12-16T16:22:04.418Z,-1.30
2022-12-16T16:24:50.816Z,-1.30
2022-12-16T16:27:38.491Z,-1.40
2022-12-16T16:30:25.664Z,-1.40
2022-12-16T16:33:12.012Z,-1.30
2022-12-16T16:35:58.420Z,-1.40
2022-12-16T16:38:45.904Z,-1.40
2022-12-16T16:41:35.200Z,-1.40
2022-12-16T16:44:21.650Z,-1.40
2022-12-16T16:47:08.384Z,-1.50
2022-12-16T16:50:00.190Z,-1.50
2022-12-16T16:52:47.703Z,-1.50
2022-12-16T16:55:37.454Z,-1.50
2022-12-16T16:58:43.445Z,-1.50
2022-12-16T17:01:35.119Z,-1.50
2022-12-16T17:04:29.288Z,-1.50
2022-12-16T17:07:23.787Z,-1.50
2022-12-16T17:13:22.764Z,-1.50
2022-12-16T17:16:17.896Z,-1.50
2022-12-16T17:19:05.933Z,-1.50
2022-12-16T17:21:57.981Z,-1.60
2022-12-16T17:24:54.767Z,-1.60
2022-12-16T17:27:57.716Z,-1.70
2022-12-16T17:31:00.708Z,-1.80
2022-12-16T17:33:53.493Z,-1.90
2022-12-16T17:36:43.134Z,-2.00
2022-12-16T17:39:31.348Z,-2.10
2022-12-16T17:42:17.640Z,-2.20
2022-12-16T17:45:04.111Z,-2.30
2022-12-16T17:47:50.515Z,-2.40
2022-12-16T17:50:37.037Z,-2.50
2022-12-16T17:53:23.499Z,-2.60
2022-12-16T17:56:13.097Z,-2.60
2022-12-16T17:59:05.711Z,-2.70
2022-12-16T18:01:56.742Z,-2.80
2022-12-16T18:04:43.675Z,-2.80
2022-12-16T18:07:30.274Z,-2.80
2022-12-16T18:10:16.716Z,-2.90
2022-12-16T18:13:03.466Z,-2.90
2022-12-16T18:15:50.023Z,-3.00
2022-12-16T18:18:38.433Z,-3.00
2022-12-16T18:21:33.192Z,-3.00
2022-12-16T18:24:26.589Z,-3.00
2022-12-16T18:27:13.935Z,-3.10
2022-12-16T18:30:00.862Z,-3.20
2022-12-16T18:32:50.379Z,-3.30
2022-12-16T18:35:36.972Z,-3.40
2022-12-16T18:38:23.702Z,-3.40
2022-12-16T18:41:10.198Z,-3.40
2022-12-16T18:43:56.738Z,-3.40
2022-12-16T18:46:43.325Z,-3.50
2022-12-16T18:49:29.967Z,-3.60
2022-12-16T18:52:16.945Z,-3.70
2022-12-16T18:55:03.490Z,-3.80
2022-12-16T18:57:50.123Z,-3.90
2022-12-16T19:00:37.179Z,-4.00
2022-12-16T19:03:24.751Z,-4.00
2022-12-16T19:06:16.030Z,-4.10
2022-12-16T19:09:02.721Z,-4.20
2022-12-16T19:11:49.124Z,-4.20
2022-12-16T19:14:35.533Z,-4.20
2022-12-16T19:17:22.048Z,-4.30
2022-12-16T19:20:20.346Z,-4.40
2022-12-16T19:23:20.121Z,-4.30
2022-12-16T19:26:06.960Z,-4.40
2022-12-16T19:28:54.154Z,-4.50
2022-12-16T19:31:49.460Z,-4.50
2022-12-16T19:34:35.935Z,-4.60
2022-12-16T19:37:22.482Z,-4.60
2022-12-16T19:40:14.850Z,-4.70
2022-12-16T19:43:01.316Z,-4.60
2022-12-16T19:45:47.944Z,-4.60
2022-12-16T19:48:34.306Z,-4.70
2022-12-16T19:51:22.180Z,-4.70
2022-12-16T19:54:08.660Z,-4.70
2022-12-16T19:57:01.689Z,-4.60
2022-12-16T19:59:51.716Z,-4.50
2022-12-16T20:02:41.167Z,-4.40
2022-12-16T20:05:27.779Z,-4.40
2022-12-16T20:08:14.302Z,-4.40
2022-12-16T20:11:01.134Z,-4.30
2022-12-16T20:13:56.102Z,-4.20
2022-12-16T20:16:42.829Z,-4.10
2022-12-16T20:19:29.223Z,-4.10
2022-12-16T20:22:16.548Z,-4.10
2022-12-16T20:25:26.587Z,-4.00
2022-12-16T20:28:13.401Z,-3.90
2022-12-16T20:31:03.139Z,-3.80
2022-12-16T20:33:49.822Z,-3.80
2022-12-16T20:36:36.505Z,-3.70
2022-12-16T20:39:28.990Z,-3.60
2022-12-16T20:42:15.793Z,-3.60
2022-12-16T20:45:05.526Z,-3.60
2022-12-16T20:47:52.099Z,-3.50
2022-12-16T20:50:38.498Z,-3.40
2022-12-16T20:53:25.454Z,-3.40
2022-12-16T20:56:12.300Z,-3.30
2022-12-16T20:58:58.880Z,-3.30
2022-12-16T21:02:01.591Z,-3.20
2022-12-16T21:04:51.909Z,-3.20
2022-12-16T21:07:38.440Z,-3.10
2022-12-16T21:10:29.893Z,-3.10
2022-12-16T21:13:37.035Z,-3.10
2022-12-16T21:16:26.287Z,-3.10
2022-12-16T21:19:12.779Z,-3.00
2022-12-16T21:21:59.361Z,-3.00
2022-12-16T21:24:45.970Z,-3.00
2022-12-16T21:27:34.820Z,-3.10
2022-12-16T21:30:21.763Z,-3.10
2022-12-16T21:33:10.357Z,-3.00
2022-12-16T21:35:57.380Z,-3.00
2022-12-16T21:38:43.897Z,-3.00
2022-12-16T21:41:30.572Z,-3.00
2022-12-16T21:44:17.549Z,-3.00
2022-12-16T21:47:04.201Z,-3.00
2022-12-16T21:49:50.785Z,-3.00
2022-12-16T21:52:38.252Z,-3.00
2022-12-16T21:55:25.182Z,-3.00
2022-12-16T22:02:38.132Z,-3.10
2022-12-16T22:05:27.719Z,-3.10
2022-12-16T22:08:14.959Z,-3.20
2022-12-16T22:11:01.401Z,-3.20
2022-12-16T22:13:50.348Z,-3.30
2022-12-16T22:16:36.845Z,-3.30
2022-12-16T22:19:23.284Z,-3.40
2022-12-16T22:22:10.351Z,-3.40
2022-12-16T22:24:57.194Z,-3.50
2022-12-16T22:27:43.595Z,-3.50
2022-12-16T22:30:33.983Z,-3.60
2022-12-16T22:33:40.272Z,-3.70
2022-12-16T22:36:28.241Z,-3.80
2022-12-16T22:39:14.907Z,-3.90
2022-12-16T22:42:01.601Z,-3.90
2022-12-16T22:44:48.013Z,-4.00
2022-12-16T22:47:41.813Z,-4.00
2022-12-16T22:50:32.050Z,-4.00
2022-12-16T22:53:18.427Z,-4.00
2022-12-16T22:56:19.037Z,-3.90
2022-12-16T22:59:05.564Z,-4.00
2022-12-16T23:01:55.182Z,-3.90
2022-12-16T23:04:43.477Z,-3.90
2022-12-16T23:07:30.166Z,-3.90
2022-12-16T23:10:16.597Z,-3.80
2022-12-16T23:16:02.457Z,-3.90
2022-12-16T23:18:49.247Z,-3.80
2022-12-16T23:21:37.703Z,-3.80
2022-12-16T23:24:25.055Z,-3.80
2022-12-16T23:27:11.572Z,-3.80
2022-12-16T23:29:58.045Z,-3.80
2022-12-16T23:32:45.938Z,-3.70
2022-12-16T23:35:32.707Z,-3.70
2022-12-16T23:38:20.727Z,-3.70
2022-12-16T23:41:07.679Z,-3.70
2022-12-16T23:43:54.306Z,-3.70
2022-12-16T23:46:43.055Z,-3.70
2022-12-16T23:49:29.503Z,-3.70
2022-12-16T23:52:15.940Z,-3.70
2022-12-16T23:55:05.437Z,-3.70
2022-12-16T23:57:56.156Z,-3.70
